Aviation Digital Data Service (ADDS)

Output produced by METARs form (1856 UTC 18 June 2019)
found at http://www.aviationweather.gov/metar/data/
 
LZKZ 181830Z 01009KT 9999 FEW045 SCT060 24/17 Q1016
TAF LZKZ 181700Z 1818/1918 03007KT 9999 SCT040 
     TEMPO 1818/1900 34015KT 7000 TSRA FEW030CB BKN050 
     TEMPO 1900/1905 3000 BCFG SCT003 
     BECMG 1906/1908 20006KT
       
LZIB 181830Z 17004KT CAVOK 25/17 Q1015
TAF LZIB 181700Z 1818/1918 09005KT CAVOK 
     BECMG 1906/1908 16008KT 9999 SCT040 
     PROB40 
     TEMPO 1911/1917 18015KT 7000 TSRA SCT040CB BKN050 
     BECMG 1917/1918 CAVOK
       
TAF LZMC 181630Z 1818/1906 VRB04KT CAVOK
       
LZPP 181830Z 19003KT CAVOK 26/15 Q1015
TAF LZPP 181700Z 1818/1903 18004KT CAVOK
       
LZSL 181830Z 03004KT CAVOK 23/17 Q1016
TAF LZSL 181700Z 1818/1903 10005KT CAVOK 
     BECMG 1818/1820 35006KT 
     TEMPO 1822/1903 35010KT -SHRA SCT040CB BKN055 
     PROB30 
     TEMPO 1822/1900 7000 TSRA BKN028 SCT035CB
       
LZTT 181830Z 08003KT 9999 MIFG FEW011 17/16 Q1019
TAF LZTT 181700Z 1818/1918 06006KT 9999 SCT020 
     PROB40 1818/1821 VRB02KT 4000 BCFG SCT003 
     BECMG 1820/1822 25004KT 
     PROB40 
     TEMPO 1821/1902 27015KT 7000 TSRA SCT040CB BKN060 
     BECMG 1904/1906 SCT030 BKN100 
     BECMG 1906/1908 14006KT 
     TEMPO 1908/1918 -SHRA SCT040TCU SCT050 
     PROB40 
     TEMPO 1909/1918 28010KT 5000 TSRA SCT030CB BKN040
       
LZZI 181830Z 05006KT 030V090 9999 FEW046 BKN061 24/15 Q1015 RETS
TAF LZZI 181700Z 1818/1903 05005KT CAVOK 
     PROB40 
     TEMPO 1818/1819 18008KT 9999 SCT045TCU